createdAt,value
2023-04-15T00:01:57.455Z,99455.59
2023-04-15T00:04:27.327Z,99458.16
2023-04-15T00:06:57.473Z,99457.59
2023-04-15T00:09:28.058Z,99453.47
2023-04-15T00:11:57.747Z,99446.66
2023-04-15T00:14:27.726Z,99442.50
2023-04-15T00:17:00.326Z,99437.94
2023-04-15T00:19:30.945Z,99441.47
2023-04-15T00:22:02.235Z,99442.28
2023-04-15T00:24:32.948Z,99436.69
2023-04-15T00:27:03.309Z,99428.47
2023-04-15T00:29:33.648Z,99430.28
2023-04-15T00:32:04.674Z,99430.94
2023-04-15T00:34:35.313Z,99432.16
2023-04-15T00:37:06.247Z,99438.59
2023-04-15T00:39:36.281Z,99435.66
2023-04-15T00:42:10.280Z,99431.97
2023-04-15T00:44:39.974Z,99433.19
2023-04-15T00:47:09.991Z,99431.72
2023-04-15T00:49:39.744Z,99428.66
2023-04-15T00:52:11.264Z,99430.94
2023-04-15T00:54:40.911Z,99430.94
2023-04-15T00:57:11.508Z,99438.59
2023-04-15T00:59:42.225Z,99439.00
2023-04-15T01:02:11.964Z,99438.16
2023-04-15T01:04:41.761Z,99420.78
2023-04-15T01:07:11.445Z,99425.97
2023-04-15T01:09:41.778Z,99433.19
2023-04-15T01:12:13.607Z,99433.38
2023-04-15T01:14:43.253Z,99440.63
2023-04-15T01:17:13.082Z,99425.53
2023-04-15T01:19:43.003Z,99435.03
2023-04-15T01:22:12.949Z,99433.63
2023-04-15T01:24:42.636Z,99440.63
2023-04-15T01:27:13.234Z,99447.66
2023-04-15T01:29:43.178Z,99443.31
2023-04-15T01:32:14.313Z,99446.00
2023-04-15T01:34:46.494Z,99453.03
2023-04-15T01:37:17.310Z,99446.63
2023-04-15T01:39:48.643Z,99452.44
2023-04-15T01:42:19.291Z,99461.72
2023-04-15T01:44:49.417Z,99474.34
2023-04-15T01:47:19.302Z,99468.75
2023-04-15T01:49:49.070Z,99480.16
2023-04-15T01:52:21.415Z,99474.94
2023-04-15T01:54:51.218Z,99486.56
2023-04-15T01:57:20.951Z,99489.66
2023-04-15T01:59:52.671Z,99492.31
2023-04-15T02:02:22.720Z,99492.56
2023-04-15T02:04:53.129Z,99497.72
2023-04-15T02:07:23.437Z,99497.31
2023-04-15T02:09:53.719Z,99504.53
2023-04-15T02:12:24.111Z,99497.31
2023-04-15T02:14:54.115Z,99501.66
2023-04-15T02:17:23.840Z,99508.88
2023-04-15T02:19:58.371Z,99496.69
2023-04-15T02:22:29.174Z,99494.00
2023-04-15T02:24:58.780Z,99491.31
2023-04-15T02:27:29.776Z,99487.59
2023-04-15T02:30:00.227Z,99482.63
2023-04-15T02:32:30.688Z,99474.97
2023-04-15T02:35:07.081Z,99481.41
2023-04-15T02:37:45.639Z,99467.75
2023-04-15T02:40:18.271Z,99471.69
2023-04-15T02:42:48.121Z,99471.88
2023-04-15T02:45:18.281Z,99475.00
2023-04-15T02:47:49.336Z,99476.03
2023-04-15T02:50:22.458Z,99471.03
2023-04-15T02:52:52.164Z,99473.97
2023-04-15T02:55:25.314Z,99471.88
2023-04-15T02:57:55.021Z,99463.00
2023-04-15T03:00:27.252Z,99459.69
2023-04-15T03:03:06.170Z,99462.59
2023-04-15T03:05:36.028Z,99455.16
2023-04-15T03:08:06.795Z,99461.34
2023-04-15T03:10:36.485Z,99449.16
2023-04-15T03:13:06.141Z,99436.94
2023-04-15T03:15:39.625Z,99406.16
2023-04-15T03:18:10.105Z,99407.16
2023-04-15T03:20:43.609Z,99403.66
2023-04-15T03:23:14.328Z,99393.09
2023-04-15T03:25:44.009Z,99384.44
2023-04-15T03:28:14.725Z,99368.50
2023-04-15T03:30:45.241Z,99352.56
2023-04-15T03:33:15.244Z,99342.03
2023-04-15T03:35:45.292Z,99344.72
2023-04-15T03:38:15.306Z,99355.47
2023-04-15T03:40:48.794Z,99343.28
2023-04-15T03:43:19.545Z,99347.81
2023-04-15T03:45:49.859Z,99354.44
2023-04-15T03:48:20.323Z,99351.53
2023-04-15T03:50:50.109Z,99321.97
2023-04-15T03:53:20.043Z,99292.00
2023-04-15T03:55:50.468Z,99271.88
2023-04-15T03:58:21.251Z,99281.41
2023-04-15T04:00:51.687Z,99273.78
2023-04-15T04:03:21.757Z,99264.50
2023-04-15T04:05:52.841Z,99262.53
2023-04-15T04:08:25.228Z,99281.84
2023-04-15T04:10:54.956Z,99283.31
2023-04-15T04:13:25.068Z,99277.06
2023-04-15T04:15:57.461Z,99281.59
2023-04-15T04:18:27.329Z,99277.72
2023-04-15T04:20:57.084Z,99248.31
2023-04-15T04:23:26.998Z,99229.31
2023-04-15T04:25:57.401Z,99235.66
2023-04-15T04:28:28.019Z,99234.25
2023-04-15T04:30:59.100Z,99243.78
2023-04-15T04:33:28.754Z,99250.84
2023-04-15T04:35:58.460Z,99251.78
2023-04-15T04:38:28.899Z,99251.59
2023-04-15T04:40:58.571Z,99259.06
2023-04-15T04:43:29.134Z,99245.97
2023-04-15T04:45:58.916Z,99255.09
2023-04-15T04:48:29.294Z,99261.50
2023-04-15T04:50:58.980Z,99241.22
2023-04-15T04:53:32.291Z,99238.75
2023-04-15T04:56:03.100Z,99244.34
2023-04-15T04:58:33.068Z,99241.72
2023-04-15T05:01:03.118Z,99238.53
2023-04-15T05:03:33.050Z,99259.88
2023-04-15T05:06:07.364Z,99259.84
2023-04-15T05:08:39.928Z,99256.97
2023-04-15T05:11:11.306Z,99252.47
2023-04-15T05:13:41.471Z,99251.81
2023-04-15T05:16:11.196Z,99251.16
2023-04-15T05:18:40.951Z,99252.63
2023-04-15T05:21:10.996Z,99246.81
2023-04-15T05:23:40.694Z,99241.22
2023-04-15T05:26:10.592Z,99246.22
2023-04-15T05:28:40.326Z,99242.72
2023-04-15T05:31:10.782Z,99235.44
2023-04-15T05:33:40.490Z,99229.25
2023-04-15T05:36:12.914Z,99225.72
2023-04-15T05:38:45.555Z,99227.16
2023-04-15T05:41:19.584Z,99232.97
2023-04-15T05:43:50.067Z,99232.31
2023-04-15T05:46:20.524Z,99222.38
2023-04-15T05:48:51.731Z,99226.34
2023-04-15T05:51:22.876Z,99221.44
2023-04-15T05:53:53.940Z,99219.53
2023-04-15T05:56:23.741Z,99220.94
2023-04-15T05:58:54.288Z,99219.31
2023-04-15T06:01:23.984Z,99217.31
2023-04-15T06:03:54.638Z,99217.41
2023-04-15T06:06:24.918Z,99207.31
2023-04-15T06:08:54.847Z,99208.50
2023-04-15T06:11:24.602Z,99207.09
2023-04-15T06:13:54.366Z,99214.31
2023-04-15T06:16:25.632Z,99204.84
2023-04-15T06:19:14.019Z,99210.00
2023-04-15T06:21:43.690Z,99204.91
2023-04-15T06:24:14.491Z,99206.72
2023-04-15T06:26:44.178Z,99210.03
2023-04-15T06:29:16.556Z,99212.13
2023-04-15T06:31:46.229Z,99207.78
2023-04-15T06:34:19.345Z,99207.41
2023-04-15T06:36:49.023Z,99202.78
2023-04-15T06:39:19.117Z,99195.16
2023-04-15T06:41:50.048Z,99183.81
2023-04-15T06:44:21.185Z,99178.19
2023-04-15T06:46:51.475Z,99184.41
2023-04-15T06:49:21.106Z,99179.28
2023-04-15T06:51:50.812Z,99179.91
2023-04-15T06:54:21.219Z,99170.78
2023-04-15T06:56:50.967Z,99166.69
2023-04-15T06:59:21.751Z,99164.63
2023-04-15T07:01:52.470Z,99157.16
2023-04-15T07:04:22.506Z,99154.06
2023-04-15T07:06:52.978Z,99152.25
2023-04-15T07:09:22.661Z,99151.19
2023-04-15T07:11:55.029Z,99150.16
2023-04-15T07:14:26.659Z,99147.47
2023-04-15T07:16:56.375Z,99145.41
2023-04-15T07:19:26.622Z,99140.22
2023-04-15T07:21:56.258Z,99144.56
2023-04-15T07:24:29.029Z,99145.00
2023-04-15T07:27:01.215Z,99140.03
2023-04-15T07:29:35.702Z,99135.50
2023-04-15T07:32:08.579Z,99146.69
2023-04-15T07:34:39.153Z,99134.06
2023-04-15T07:37:09.569Z,99133.03
2023-04-15T07:39:39.658Z,99127.00
2023-04-15T07:42:10.304Z,99134.84
2023-04-15T07:44:40.726Z,99129.94
2023-04-15T07:47:10.335Z,99130.13
2023-04-15T07:49:40.487Z,99131.16
2023-04-15T07:52:10.189Z,99123.56
2023-04-15T07:54:39.991Z,99124.56
2023-04-15T07:57:09.610Z,99124.38
2023-04-15T07:59:40.450Z,99121.69
2023-04-15T08:02:10.955Z,99123.28
2023-04-15T08:04:42.158Z,99111.75
2023-04-15T08:07:12.499Z,99120.41
2023-04-15T08:09:42.118Z,99105.16
2023-04-15T08:12:15.860Z,99115.91
2023-04-15T08:14:45.528Z,99118.53
2023-04-15T08:17:15.240Z,99116.72
2023-04-15T08:19:44.916Z,99118.38
2023-04-15T08:22:18.076Z,99111.59
2023-04-15T08:24:50.872Z,99115.84
2023-04-15T08:27:20.641Z,99117.31
2023-04-15T08:29:50.276Z,99114.03
2023-04-15T08:32:20.695Z,99105.75
2023-04-15T08:34:50.564Z,99107.25
2023-04-15T08:37:20.211Z,99113.22
2023-04-15T08:39:50.568Z,99112.22
2023-04-15T08:42:21.512Z,99118.00
2023-04-15T08:44:51.173Z,99123.16
2023-04-15T08:47:22.029Z,99112.44
2023-04-15T08:49:55.476Z,99116.38
2023-04-15T08:52:25.465Z,99120.72
2023-04-15T08:54:59.649Z,99120.25
2023-04-15T08:57:32.340Z,99123.38
2023-04-15T09:00:03.093Z,99126.25
2023-04-15T09:02:34.749Z,99129.59
2023-04-15T09:05:07.833Z,99127.56
2023-04-15T09:07:38.198Z,99132.50
2023-04-15T09:10:08.308Z,99126.09
2023-04-15T09:12:38.530Z,99130.25
2023-04-15T09:15:09.305Z,99134.16
2023-04-15T09:17:44.085Z,99136.84
2023-04-15T09:20:15.085Z,99132.50
2023-04-15T09:22:45.547Z,99132.94
2023-04-15T09:25:17.969Z,99145.34
2023-04-15T09:27:54.677Z,99140.97
2023-04-15T09:30:24.345Z,99135.41
2023-04-15T09:32:58.141Z,99144.50
2023-04-15T09:35:29.241Z,99144.50
2023-04-15T09:38:11.617Z,99147.41
2023-04-15T09:40:43.221Z,99155.28
2023-04-15T09:43:15.871Z,99152.72
2023-04-15T09:45:53.038Z,99146.00
2023-04-15T09:48:31.434Z,99154.41
2023-04-15T09:51:02.054Z,99149.50
2023-04-15T09:53:32.011Z,99152.59
2023-04-15T09:56:04.827Z,99150.97
2023-04-15T09:58:36.556Z,99151.19
2023-04-15T10:01:07.777Z,99152.81
2023-04-15T10:03:40.826Z,99151.78
2023-04-15T10:06:10.627Z,99156.34
2023-04-15T10:08:40.279Z,99149.50
2023-04-15T10:11:10.164Z,99153.88
2023-04-15T10:13:39.753Z,99156.34
2023-04-15T10:16:17.756Z,99168.53
2023-04-15T10:18:48.647Z,99159.44
2023-04-15T10:21:20.230Z,99173.50
2023-04-15T10:23:50.343Z,99173.31
2023-04-15T10:26:20.105Z,99184.06
2023-04-15T10:28:50.476Z,99180.75
2023-04-15T10:31:21.563Z,99179.50
2023-04-15T10:33:51.348Z,99185.06
2023-04-15T10:36:22.073Z,99184.88
2023-04-15T10:38:51.720Z,99183.47
2023-04-15T10:41:24.353Z,99182.41
2023-04-15T10:43:55.592Z,99181.59
2023-04-15T10:46:41.543Z,99191.13
2023-04-15T10:49:14.669Z,99185.97
2023-04-15T10:51:45.890Z,99180.38
2023-04-15T10:54:29.160Z,99189.25
2023-04-15T10:57:04.584Z,99195.47
2023-04-15T11:00:05.781Z,99194.63
2023-04-15T11:02:44.799Z,99200.84
2023-04-15T11:05:15.410Z,99213.00
2023-04-15T11:07:56.048Z,99204.34
2023-04-15T11:10:28.845Z,99219.88
2023-04-15T11:13:18.069Z,99236.59
2023-04-15T11:15:48.045Z,99225.22
2023-04-15T11:18:27.950Z,99226.69
2023-04-15T11:21:01.184Z,99238.06
2023-04-15T11:23:32.100Z,99232.69
2023-04-15T11:26:02.529Z,99245.47
2023-04-15T11:28:33.415Z,99238.88
2023-04-15T11:31:10.044Z,99254.38
2023-04-15T11:33:39.985Z,99263.88
2023-04-15T11:36:09.651Z,99262.63
2023-04-15T11:38:39.524Z,99255.41
2023-04-15T11:41:09.170Z,99254.38
2023-04-15T11:43:38.795Z,99258.91
2023-04-15T11:46:09.590Z,99255.81
2023-04-15T11:48:39.334Z,99255.63
2023-04-15T11:51:09.591Z,99250.25
2023-04-15T11:53:47.489Z,99252.31
2023-04-15T11:56:27.653Z,99247.75
2023-04-15T11:59:00.158Z,99255.81
2023-04-15T12:01:44.570Z,99248.59
2023-04-15T12:04:20.774Z,99250.88
2023-04-15T12:06:53.001Z,99244.06
2023-04-15T12:09:23.505Z,99238.28
2023-04-15T12:12:00.006Z,99245.69
2023-04-15T12:14:30.771Z,99233.53
2023-04-15T12:17:07.458Z,99240.97
2023-04-15T12:19:44.592Z,99242.41
2023-04-15T12:22:16.776Z,99244.03
2023-04-15T12:24:49.482Z,99252.75
2023-04-15T12:27:19.462Z,99237.66
2023-04-15T12:29:49.278Z,99235.78
2023-04-15T12:32:22.322Z,99227.75
2023-04-15T12:34:58.352Z,99233.31
2023-04-15T12:37:28.786Z,99247.38
2023-04-15T12:39:58.488Z,99256.03
2023-04-15T12:42:28.185Z,99249.63
2023-04-15T12:44:58.456Z,99248.59
2023-04-15T12:47:28.194Z,99243.03
2023-04-15T12:49:57.918Z,99247.38
2023-04-15T12:52:27.817Z,99248.81
2023-04-15T12:54:57.634Z,99253.38
2023-04-15T12:57:27.321Z,99239.53
2023-04-15T12:59:57.054Z,99240.75
2023-04-15T13:02:28.772Z,99227.97
2023-04-15T13:04:58.548Z,99214.94
2023-04-15T13:07:28.247Z,99201.31
2023-04-15T13:09:58.508Z,99199.50
2023-04-15T13:12:28.821Z,99194.31
2023-04-15T13:14:58.793Z,99180.06
2023-04-15T13:17:28.468Z,99187.09
2023-04-15T13:19:58.624Z,99188.97
2023-04-15T13:22:28.696Z,99198.03
2023-04-15T13:24:58.352Z,99193.28
2023-04-15T13:27:27.995Z,99207.72
2023-04-15T13:29:57.830Z,99229.41
2023-04-15T13:32:27.793Z,99238.09
2023-04-15T13:34:57.862Z,99239.94
2023-04-15T13:37:30.674Z,99252.31
2023-04-15T13:40:00.364Z,99259.97
2023-04-15T13:42:30.056Z,99257.47
2023-04-15T13:44:59.688Z,99275.66
2023-04-15T13:47:29.348Z,99287.66
2023-04-15T13:49:59.239Z,99276.91
2023-04-15T13:52:29.906Z,99284.75
2023-04-15T13:55:07.895Z,99278.75
2023-04-15T13:57:49.222Z,99271.31
2023-04-15T14:00:19.306Z,99268.44
2023-04-15T14:02:49.067Z,99274.63
2023-04-15T14:05:18.860Z,99275.66
2023-04-15T14:07:48.514Z,99276.47
2023-04-15T14:10:18.152Z,99278.97
2023-04-15T14:12:47.806Z,99277.91
2023-04-15T14:15:17.509Z,99270.50
2023-04-15T14:17:47.399Z,99280.00
2023-04-15T14:20:17.303Z,99281.03
2023-04-15T14:22:47.161Z,99270.31
2023-04-15T14:25:30.518Z,99277.91
2023-04-15T14:28:03.812Z,99275.25
2023-04-15T14:30:33.528Z,99286.59
2023-04-15T14:33:06.068Z,99280.81
2023-04-15T14:35:35.843Z,99279.19
2023-04-15T14:38:05.687Z,99278.13
2023-04-15T14:40:36.095Z,99273.16
2023-04-15T14:43:06.024Z,99284.53
2023-04-15T14:45:35.762Z,99280.00
2023-04-15T14:48:05.745Z,99277.09
2023-04-15T14:50:35.372Z,99279.56
2023-04-15T14:53:07.787Z,99277.94
2023-04-15T14:55:37.576Z,99273.78
2023-04-15T14:58:08.055Z,99273.38
2023-04-15T15:00:40.826Z,99280.63
2023-04-15T15:03:16.710Z,99275.84
2023-04-15T15:05:48.298Z,99281.84
2023-04-15T15:08:17.988Z,99284.53
2023-04-15T15:10:50.361Z,99283.91
2023-04-15T15:13:20.819Z,99280.41
2023-04-15T15:15:53.480Z,99281.63
2023-04-15T15:18:23.270Z,99280.41
2023-04-15T15:20:52.957Z,99274.81
2023-04-15T15:23:22.619Z,99277.94
2023-04-15T15:25:52.272Z,99262.88
2023-04-15T15:28:23.322Z,99263.28
2023-04-15T15:30:53.031Z,99261.00
2023-04-15T15:33:22.737Z,99252.75
2023-04-15T15:35:52.705Z,99243.69
2023-04-15T15:38:22.336Z,99243.06
2023-04-15T15:40:57.063Z,99238.91
2023-04-15T15:43:26.673Z,99227.78
2023-04-15T15:45:57.078Z,99227.38
2023-04-15T15:48:26.920Z,99213.34
2023-04-15T15:50:56.864Z,99223.03
2023-04-15T15:53:27.424Z,99229.84
2023-04-15T15:55:57.681Z,99209.41
2023-04-15T15:58:27.466Z,99209.41
2023-04-15T16:00:57.945Z,99209.00
2023-04-15T16:03:28.916Z,99201.34
2023-04-15T16:05:58.628Z,99209.00
2023-04-15T16:08:28.690Z,99198.91
2023-04-15T16:10:58.413Z,99185.28
2023-04-15T16:13:28.917Z,99179.91
2023-04-15T16:15:58.619Z,99178.28
2023-04-15T16:18:28.302Z,99180.34
2023-04-15T16:20:57.929Z,99172.28
2023-04-15T16:23:27.967Z,99165.47
2023-04-15T16:25:57.690Z,99163.81
2023-04-15T16:28:27.545Z,99173.09
2023-04-15T16:30:58.605Z,99163.59
2023-04-15T16:33:28.568Z,99157.00
2023-04-15T16:35:58.202Z,99157.41
2023-04-15T16:38:27.927Z,99158.63
2023-04-15T16:40:57.847Z,99157.19
2023-04-15T16:43:27.920Z,99157.59
2023-04-15T16:45:57.989Z,99149.75
2023-04-15T16:48:27.815Z,99151.84
2023-04-15T16:50:57.437Z,99142.75
2023-04-15T16:53:27.170Z,99141.50
2023-04-15T16:55:57.031Z,99128.91
2023-04-15T16:58:26.708Z,99121.28
2023-04-15T17:00:56.376Z,99113.66
2023-04-15T17:03:26.244Z,99108.31
2023-04-15T17:05:56.082Z,99116.16
2023-04-15T17:08:25.726Z,99116.16
2023-04-15T17:10:56.719Z,99123.75
2023-04-15T17:13:27.543Z,99126.22
2023-04-15T17:15:57.226Z,99133.91
2023-04-15T17:18:27.112Z,99130.19
2023-04-15T17:20:58.264Z,99129.75
2023-04-15T17:23:28.816Z,99127.25
2023-04-15T17:25:58.465Z,99130.38
2023-04-15T17:28:28.165Z,99131.38
2023-04-15T17:30:57.843Z,99136.94
2023-04-15T17:33:59.903Z,99139.66
2023-04-15T17:36:17.926Z,99142.53
2023-04-15T17:38:47.617Z,99149.34
2023-04-15T17:41:17.347Z,99158.84
2023-04-15T17:43:47.050Z,99170.00
2023-04-15T17:46:16.773Z,99171.44
2023-04-15T17:48:46.812Z,99176.19
2023-04-15T17:51:16.759Z,99169.16
2023-04-15T17:53:46.374Z,99184.22
2023-04-15T17:56:16.056Z,99179.06
2023-04-15T17:58:46.534Z,99170.81
2023-04-15T18:01:16.211Z,99166.47
2023-04-15T18:03:46.725Z,99168.94
2023-04-15T18:06:18.054Z,99164.00
2023-04-15T18:08:47.801Z,99174.94
2023-04-15T18:11:17.624Z,99164.81
2023-04-15T18:13:47.429Z,99165.25
2023-04-15T18:16:17.253Z,99172.88
2023-04-15T18:18:46.979Z,99180.91
2023-04-15T18:21:16.587Z,99184.63
2023-04-15T18:23:47.211Z,99185.25
2023-04-15T18:26:17.196Z,99185.66
2023-04-15T18:28:46.870Z,99201.97
2023-04-15T18:31:16.495Z,99207.94
2023-04-15T18:33:46.148Z,99214.13
2023-04-15T18:36:15.772Z,99218.47
2023-04-15T18:38:47.173Z,99224.03
2023-04-15T18:41:16.784Z,99225.03
2023-04-15T18:43:46.408Z,99234.94
2023-04-15T18:46:16.326Z,99228.16
2023-04-15T18:48:45.996Z,99232.47
2023-04-15T18:51:15.621Z,99234.75
2023-04-15T18:53:45.262Z,99230.00
2023-04-15T18:56:14.896Z,99237.66
2023-04-15T18:59:18.113Z,99247.34
2023-04-15T19:01:34.786Z,99241.13
2023-04-15T19:04:04.801Z,99240.94
2023-04-15T19:06:35.306Z,99228.56
2023-04-15T19:09:05.157Z,99227.34
2023-04-15T19:11:34.896Z,99244.66
2023-04-15T19:14:04.628Z,99241.13
2023-04-15T19:16:34.353Z,99246.91
2023-04-15T19:19:04.303Z,99247.13
2023-04-15T19:21:34.095Z,99251.88
2023-04-15T19:24:03.717Z,99258.91
2023-04-15T19:26:33.337Z,99254.97
2023-04-15T19:29:03.236Z,99252.28
2023-04-15T19:31:33.129Z,99244.22
2023-04-15T19:34:03.373Z,99251.47
2023-04-15T19:36:33.756Z,99241.13
2023-04-15T19:39:03.788Z,99233.53
2023-04-15T19:41:33.625Z,99243.59
2023-04-15T19:44:04.601Z,99235.38
2023-04-15T19:46:34.437Z,99250.44
2023-04-15T19:49:04.534Z,99248.75
2023-04-15T19:51:34.445Z,99244.03
2023-04-15T19:54:05.139Z,99252.47
2023-04-15T19:56:34.858Z,99264.00
2023-04-15T19:59:04.797Z,99257.63
2023-04-15T20:01:34.648Z,99259.28
2023-04-15T20:04:05.484Z,99262.59
2023-04-15T20:06:35.323Z,99262.97
2023-04-15T20:09:05.398Z,99257.22
2023-04-15T20:12:06.100Z,99267.13
2023-04-15T20:14:26.534Z,99264.44
2023-04-15T20:16:56.238Z,99277.84
2023-04-15T20:19:26.652Z,99268.59
2023-04-15T20:21:56.280Z,99269.81
2023-04-15T20:24:25.961Z,99263.84
2023-04-15T20:26:55.614Z,99253.13
2023-04-15T20:29:25.705Z,99247.53
2023-04-15T20:31:55.307Z,99244.22
2023-04-15T20:34:24.976Z,99243.00
2023-04-15T20:36:54.613Z,99261.13
2023-04-15T20:39:24.434Z,99240.31
2023-04-15T20:41:56.911Z,99250.22
2023-04-15T20:44:26.683Z,99249.78
2023-04-15T20:46:56.334Z,99252.91
2023-04-15T20:49:26.399Z,99263.41
2023-04-15T20:51:56.113Z,99257.84
2023-04-15T20:54:25.769Z,99267.72
2023-04-15T20:56:59.622Z,99264.44
2023-04-15T20:59:29.441Z,99255.56
2023-04-15T21:01:59.687Z,99263.81
2023-04-15T21:04:29.362Z,99270.19
2023-04-15T21:06:58.990Z,99263.41
2023-04-15T21:09:28.640Z,99268.34
2023-04-15T21:12:01.666Z,99281.97
2023-04-15T21:14:32.558Z,99265.88
2023-04-15T21:17:10.598Z,99267.13
2023-04-15T21:19:41.861Z,99273.69
2023-04-15T21:22:11.521Z,99272.06
2023-04-15T21:24:41.157Z,99277.03
2023-04-15T21:27:11.723Z,99279.50
2023-04-15T21:29:41.919Z,99275.34
2023-04-15T21:32:11.687Z,99266.69
2023-04-15T21:34:41.382Z,99276.81
2023-04-15T21:37:11.062Z,99267.09
2023-04-15T21:39:40.729Z,99264.84
2023-04-15T21:42:10.471Z,99271.03
2023-04-15T21:44:40.156Z,99264.63
2023-04-15T21:47:09.833Z,99266.69
2023-04-15T21:49:39.852Z,99273.69
2023-04-15T21:52:09.554Z,99259.47
2023-04-15T21:54:39.587Z,99270.41
2023-04-15T21:57:09.285Z,99260.09
2023-04-15T21:59:38.884Z,99262.16
2023-04-15T22:02:08.611Z,99264.84
2023-04-15T22:04:38.348Z,99261.31
2023-04-15T22:07:08.007Z,99255.75
2023-04-15T22:09:37.827Z,99273.50
2023-04-15T22:12:08.114Z,99266.69
2023-04-15T22:14:37.790Z,99264.22
2023-04-15T22:17:07.491Z,99272.44
2023-04-15T22:19:37.198Z,99270.19
2023-04-15T22:22:06.898Z,99264.19
2023-04-15T22:24:39.957Z,99258.81
2023-04-15T22:27:10.464Z,99257.00
2023-04-15T22:29:40.137Z,99270.59
2023-04-15T22:32:10.025Z,99268.13
2023-04-15T22:34:39.644Z,99268.13
2023-04-15T22:37:09.287Z,99264.19
2023-04-15T22:39:38.958Z,99260.06
2023-04-15T22:42:08.566Z,99269.97
2023-04-15T22:44:38.218Z,99272.22
2023-04-15T22:47:07.952Z,99278.25
2023-04-15T22:49:38.084Z,99278.84
2023-04-15T22:52:12.135Z,99267.09
2023-04-15T22:54:42.236Z,99271.63
2023-04-15T22:57:11.824Z,99279.66
2023-04-15T22:59:41.500Z,99283.16
2023-04-15T23:02:11.336Z,99296.34
2023-04-15T23:04:41.185Z,99300.28
2023-04-15T23:07:11.039Z,99275.34
2023-04-15T23:09:41.311Z,99276.16
2023-04-15T23:12:10.926Z,99293.28
2023-04-15T23:14:40.541Z,99294.50
2023-04-15T23:17:10.314Z,99291.22
2023-04-15T23:19:40.546Z,99290.19
2023-04-15T23:22:12.120Z,99297.19
2023-04-15T23:24:41.744Z,99306.03
2023-04-15T23:27:11.400Z,99304.22
2023-04-15T23:29:41.075Z,99303.56
2023-04-15T23:32:10.695Z,99297.16
2023-04-15T23:34:40.366Z,99285.63
2023-04-15T23:37:10.070Z,99277.59
2023-04-15T23:39:39.743Z,99276.16
2023-04-15T23:42:09.426Z,99284.00
2023-04-15T23:44:41.839Z,99278.63
2023-04-15T23:47:12.185Z,99272.00
2023-04-15T23:49:42.504Z,99274.50
2023-04-15T23:52:12.398Z,99278.41
2023-04-15T23:54:42.440Z,99267.28
2023-04-15T23:57:12.073Z,99271.00
2023-04-15T23:59:41.836Z,99272.66
